sensor_id;sensor_type;location;lat;lon;timestamp;pressure;altitude;pressure_sealevel;temperature;humidity
27613;BME280;15036;48.094;-1.690;2022-09-16T00:02:15;101006.31;;;20.08;51.19
27613;BME280;15036;48.094;-1.690;2022-09-16T00:04:40;101006.53;;;19.84;51.80
27613;BME280;15036;48.094;-1.690;2022-09-16T00:07:05;101003.69;;;20.18;51.17
27613;BME280;15036;48.094;-1.690;2022-09-16T00:09:31;101011.50;;;20.42;50.75
27613;BME280;15036;48.094;-1.690;2022-09-16T00:11:56;101007.44;;;20.28;51.07
27613;BME280;15036;48.094;-1.690;2022-09-16T00:14:21;101013.34;;;20.32;51.01
27613;BME280;15036;48.094;-1.690;2022-09-16T00:16:47;101014.41;;;20.52;50.75
27613;BME280;15036;48.094;-1.690;2022-09-16T00:19:12;101016.47;;;20.40;50.72
27613;BME280;15036;48.094;-1.690;2022-09-16T00:21:38;101015.00;;;20.33;50.89
27613;BME280;15036;48.094;-1.690;2022-09-16T00:24:03;101013.97;;;20.39;50.62
27613;BME280;15036;48.094;-1.690;2022-09-16T00:26:29;101012.50;;;20.31;50.79
27613;BME280;15036;48.094;-1.690;2022-09-16T00:28:55;101015.41;;;20.41;50.53
27613;BME280;15036;48.094;-1.690;2022-09-16T00:31:20;101019.13;;;20.30;50.99
27613;BME280;15036;48.094;-1.690;2022-09-16T00:33:45;101014.94;;;20.49;50.52
27613;BME280;15036;48.094;-1.690;2022-09-16T00:36:14;101013.78;;;20.45;50.46
27613;BME280;15036;48.094;-1.690;2022-09-16T00:38:40;101015.53;;;20.13;51.36
27613;BME280;15036;48.094;-1.690;2022-09-16T00:41:06;101008.56;;;20.49;50.65
27613;BME280;15036;48.094;-1.690;2022-09-16T00:43:51;101010.78;;;20.30;50.87
27613;BME280;15036;48.094;-1.690;2022-09-16T00:46:29;101013.22;;;20.43;51.04
27613;BME280;15036;48.094;-1.690;2022-09-16T00:49:00;101015.44;;;20.46;50.69
27613;BME280;15036;48.094;-1.690;2022-09-16T00:51:26;101009.03;;;19.69;52.77
27613;BME280;15036;48.094;-1.690;2022-09-16T00:53:57;101009.69;;;19.93;52.17
27613;BME280;15036;48.094;-1.690;2022-09-16T00:56:28;101012.38;;;19.88;52.19
27613;BME280;15036;48.094;-1.690;2022-09-16T01:01:33;101018.69;;;19.50;53.36
27613;BME280;15036;48.094;-1.690;2022-09-16T01:04:03;101009.28;;;19.35;54.05
27613;BME280;15036;48.094;-1.690;2022-09-16T01:06:35;101012.72;;;19.42;53.59
27613;BME280;15036;48.094;-1.690;2022-09-16T01:09:02;101016.66;;;19.46;53.46
27613;BME280;15036;48.094;-1.690;2022-09-16T01:11:28;101019.44;;;19.79;52.85
27613;BME280;15036;48.094;-1.690;2022-09-16T01:13:54;101023.06;;;18.90;55.50
27613;BME280;15036;48.094;-1.690;2022-09-16T01:16:43;101017.59;;;19.68;53.30
27613;BME280;15036;48.094;-1.690;2022-09-16T01:19:31;101014.25;;;19.66;53.46
27613;BME280;15036;48.094;-1.690;2022-09-16T01:41:22;101010.00;;;19.97;52.62
27613;BME280;15036;48.094;-1.690;2022-09-16T01:44:31;101027.66;;;19.57;54.02
27613;BME280;15036;48.094;-1.690;2022-09-16T01:47:16;101016.75;;;19.67;53.83
27613;BME280;15036;48.094;-1.690;2022-09-16T01:55:02;101012.72;;;19.75;53.80
27613;BME280;15036;48.094;-1.690;2022-09-16T02:00:13;101013.22;;;19.55;54.33
27613;BME280;15036;48.094;-1.690;2022-09-16T02:05:27;101019.84;;;19.38;55.10
27613;BME280;15036;48.094;-1.690;2022-09-16T02:08:00;101021.28;;;19.12;55.67
27613;BME280;15036;48.094;-1.690;2022-09-16T02:10:32;101004.25;;;19.65;54.44
27613;BME280;15036;48.094;-1.690;2022-09-16T02:13:08;101012.81;;;19.63;54.32
27613;BME280;15036;48.094;-1.690;2022-09-16T02:15:37;101016.81;;;19.39;54.99
27613;BME280;15036;48.094;-1.690;2022-09-16T02:18:09;101018.06;;;18.87;56.52
27613;BME280;15036;48.094;-1.690;2022-09-16T02:20:39;101016.28;;;18.81;57.09
27613;BME280;15036;48.094;-1.690;2022-09-16T02:23:08;101018.66;;;18.89;56.68
27613;BME280;15036;48.094;-1.690;2022-09-16T02:25:38;101010.00;;;18.85;56.84
27613;BME280;15036;48.094;-1.690;2022-09-16T02:28:07;101018.31;;;18.85;57.10
27613;BME280;15036;48.094;-1.690;2022-09-16T02:30:39;101014.97;;;18.72;57.46
27613;BME280;15036;48.094;-1.690;2022-09-16T02:33:08;101019.03;;;18.81;57.59
27613;BME280;15036;48.094;-1.690;2022-09-16T02:35:38;101013.44;;;18.64;58.08
27613;BME280;15036;48.094;-1.690;2022-09-16T02:38:10;101016.72;;;18.38;58.82
27613;BME280;15036;48.094;-1.690;2022-09-16T02:40:47;101019.00;;;18.41;58.77
27613;BME280;15036;48.094;-1.690;2022-09-16T02:43:16;101017.50;;;18.22;59.53
27613;BME280;15036;48.094;-1.690;2022-09-16T02:48:24;101006.59;;;18.95;57.24
27613;BME280;15036;48.094;-1.690;2022-09-16T02:53:31;101010.84;;;18.58;58.12
27613;BME280;15036;48.094;-1.690;2022-09-16T02:56:02;101006.75;;;18.37;58.89
27613;BME280;15036;48.094;-1.690;2022-09-16T02:58:30;101001.66;;;19.14;56.76
27613;BME280;15036;48.094;-1.690;2022-09-16T03:00:57;101005.91;;;18.37;58.88
27613;BME280;15036;48.094;-1.690;2022-09-16T03:03:23;101003.72;;;18.90;57.05
27613;BME280;15036;48.094;-1.690;2022-09-16T03:08:33;101003.91;;;18.32;59.11
27613;BME280;15036;48.094;-1.690;2022-09-16T03:11:16;100992.22;;;18.81;57.96
27613;BME280;15036;48.094;-1.690;2022-09-16T03:25:02;101006.50;;;18.62;58.49
27613;BME280;15036;48.094;-1.690;2022-09-16T03:27:37;101001.31;;;18.65;58.48
27613;BME280;15036;48.094;-1.690;2022-09-16T03:30:07;101001.72;;;18.85;57.94
27613;BME280;15036;48.094;-1.690;2022-09-16T03:32:41;100998.03;;;18.96;57.46
27613;BME280;15036;48.094;-1.690;2022-09-16T03:35:12;101008.59;;;18.99;57.26
27613;BME280;15036;48.094;-1.690;2022-09-16T03:37:41;101010.88;;;18.23;59.47
27613;BME280;15036;48.094;-1.690;2022-09-16T03:40:12;101009.09;;;17.94;60.48
27613;BME280;15036;48.094;-1.690;2022-09-16T03:42:39;101014.47;;;18.35;59.01
27613;BME280;15036;48.094;-1.690;2022-09-16T03:45:06;101005.19;;;18.41;58.64
27613;BME280;15036;48.094;-1.690;2022-09-16T03:47:32;101012.63;;;18.41;59.19
27613;BME280;15036;48.094;-1.690;2022-09-16T03:49:57;101009.59;;;18.02;59.91
27613;BME280;15036;48.094;-1.690;2022-09-16T03:52:22;101008.50;;;18.94;57.50
27613;BME280;15036;48.094;-1.690;2022-09-16T03:54:48;101007.47;;;18.44;58.35
27613;BME280;15036;48.094;-1.690;2022-09-16T03:57:13;101010.47;;;19.11;57.31
27613;BME280;15036;48.094;-1.690;2022-09-16T03:59:39;101011.00;;;18.79;57.91
27613;BME280;15036;48.094;-1.690;2022-09-16T04:02:05;101012.78;;;18.46;58.69
27613;BME280;15036;48.094;-1.690;2022-09-16T04:04:30;101009.06;;;18.52;58.59
27613;BME280;15036;48.094;-1.690;2022-09-16T04:06:55;101016.19;;;18.64;57.94
27613;BME280;15036;48.094;-1.690;2022-09-16T04:09:21;101014.72;;;18.10;58.93
27613;BME280;15036;48.094;-1.690;2022-09-16T04:11:46;101023.22;;;19.12;56.83
27613;BME280;15036;48.094;-1.690;2022-09-16T04:14:11;101025.31;;;19.33;56.00
27613;BME280;15036;48.094;-1.690;2022-09-16T04:16:37;101030.19;;;18.58;57.77
27613;BME280;15036;48.094;-1.690;2022-09-16T04:19:02;101017.69;;;18.55;57.90
27613;BME280;15036;48.094;-1.690;2022-09-16T04:21:28;101022.72;;;18.58;58.37
27613;BME280;15036;48.094;-1.690;2022-09-16T04:23:53;101019.56;;;18.66;57.98
27613;BME280;15036;48.094;-1.690;2022-09-16T04:26:19;101031.34;;;18.73;57.52
27613;BME280;15036;48.094;-1.690;2022-09-16T04:28:45;101025.25;;;18.60;57.73
27613;BME280;15036;48.094;-1.690;2022-09-16T04:31:13;101032.88;;;18.81;57.38
27613;BME280;15036;48.094;-1.690;2022-09-16T04:33:39;101029.16;;;18.75;57.25
27613;BME280;15036;48.094;-1.690;2022-09-16T04:36:14;101035.91;;;18.68;57.60
27613;BME280;15036;48.094;-1.690;2022-09-16T04:38:41;101037.31;;;18.82;56.56
27613;BME280;15036;48.094;-1.690;2022-09-16T04:41:10;101036.50;;;18.81;56.34
27613;BME280;15036;48.094;-1.690;2022-09-16T04:43:36;101039.44;;;18.63;57.32
27613;BME280;15036;48.094;-1.690;2022-09-16T04:46:01;101047.94;;;18.73;57.11
27613;BME280;15036;48.094;-1.690;2022-09-16T04:48:28;101044.66;;;18.76;56.98
27613;BME280;15036;48.094;-1.690;2022-09-16T04:51:07;101037.25;;;18.65;56.74
27613;BME280;15036;48.094;-1.690;2022-09-16T04:53:34;101040.41;;;19.14;55.94
27613;BME280;15036;48.094;-1.690;2022-09-16T04:56:20;101032.97;;;19.14;55.63
27613;BME280;15036;48.094;-1.690;2022-09-16T04:58:48;101038.25;;;19.44;55.19
27613;BME280;15036;48.094;-1.690;2022-09-16T05:01:16;101043.09;;;19.53;54.74
27613;BME280;15036;48.094;-1.690;2022-09-16T05:03:44;101036.16;;;19.51;54.78
27613;BME280;15036;48.094;-1.690;2022-09-16T05:06:12;101043.78;;;19.77;54.33
27613;BME280;15036;48.094;-1.690;2022-09-16T05:08:38;101046.47;;;19.39;55.23
27613;BME280;15036;48.094;-1.690;2022-09-16T05:11:18;101052.41;;;19.47;54.90
27613;BME280;15036;48.094;-1.690;2022-09-16T05:13:44;101054.53;;;19.73;54.16
27613;BME280;15036;48.094;-1.690;2022-09-16T05:16:15;101047.66;;;19.76;54.38
27613;BME280;15036;48.094;-1.690;2022-09-16T05:18:42;101055.88;;;19.71;54.56
27613;BME280;15036;48.094;-1.690;2022-09-16T05:21:10;101048.00;;;19.63;54.73
27613;BME280;15036;48.094;-1.690;2022-09-16T05:23:36;101063.16;;;19.44;55.32
27613;BME280;15036;48.094;-1.690;2022-09-16T05:26:08;101054.88;;;19.32;55.55
27613;BME280;15036;48.094;-1.690;2022-09-16T05:28:34;101066.06;;;19.37;55.81
27613;BME280;15036;48.094;-1.690;2022-09-16T05:33:36;101059.56;;;20.26;53.36
27613;BME280;15036;48.094;-1.690;2022-09-16T05:36:07;101059.91;;;20.30;52.83
27613;BME280;15036;48.094;-1.690;2022-09-16T05:38:33;101067.34;;;20.46;52.51
27613;BME280;15036;48.094;-1.690;2022-09-16T05:41:00;101069.19;;;20.40;52.39
27613;BME280;15036;48.094;-1.690;2022-09-16T05:43:26;101068.03;;;20.03;52.86
27613;BME280;15036;48.094;-1.690;2022-09-16T05:45:52;101078.88;;;20.21;52.77
27613;BME280;15036;48.094;-1.690;2022-09-16T05:48:17;101067.97;;;20.53;51.96
27613;BME280;15036;48.094;-1.690;2022-09-16T05:50:51;101077.88;;;20.65;51.27
27613;BME280;15036;48.094;-1.690;2022-09-16T05:53:16;101073.47;;;20.15;51.57
27613;BME280;15036;48.094;-1.690;2022-09-16T05:55:41;101078.88;;;20.38;51.09
27613;BME280;15036;48.094;-1.690;2022-09-16T05:58:07;101079.50;;;20.45;50.89
27613;BME280;15036;48.094;-1.690;2022-09-16T06:00:32;101078.22;;;20.74;50.22
27613;BME280;15036;48.094;-1.690;2022-09-16T06:02:57;101087.09;;;20.33;50.09
27613;BME280;15036;48.094;-1.690;2022-09-16T06:05:23;101091.75;;;20.65;49.60
27613;BME280;15036;48.094;-1.690;2022-09-16T06:07:48;101093.75;;;20.32;50.23
27613;BME280;15036;48.094;-1.690;2022-09-16T06:10:14;101094.94;;;20.57;49.71
27613;BME280;15036;48.094;-1.690;2022-09-16T06:12:39;101093.66;;;20.27;49.73
27613;BME280;15036;48.094;-1.690;2022-09-16T06:15:05;101103.31;;;20.08;49.83
27613;BME280;15036;48.094;-1.690;2022-09-16T06:17:30;101105.66;;;20.70;48.54
27613;BME280;15036;48.094;-1.690;2022-09-16T06:19:56;101105.75;;;20.76;48.48
27613;BME280;15036;48.094;-1.690;2022-09-16T06:22:21;101104.31;;;20.95;47.50
27613;BME280;15036;48.094;-1.690;2022-09-16T06:24:46;101106.34;;;20.78;47.55
27613;BME280;15036;48.094;-1.690;2022-09-16T06:27:12;101106.06;;;21.01;47.09
27613;BME280;15036;48.094;-1.690;2022-09-16T06:29:37;101106.25;;;21.16;46.29
27613;BME280;15036;48.094;-1.690;2022-09-16T06:32:03;101097.44;;;21.19;46.38
27613;BME280;15036;48.094;-1.690;2022-09-16T06:34:28;101103.09;;;21.29;46.18
27613;BME280;15036;48.094;-1.690;2022-09-16T06:36:54;101101.81;;;21.15;45.96
27613;BME280;15036;48.094;-1.690;2022-09-16T06:39:19;101102.41;;;20.73;46.37
27613;BME280;15036;48.094;-1.690;2022-09-16T06:41:46;101111.22;;;20.70;45.76
27613;BME280;15036;48.094;-1.690;2022-09-16T06:44:11;101101.94;;;20.82;45.48
27613;BME280;15036;48.094;-1.690;2022-09-16T06:46:37;101110.88;;;21.05;44.99
27613;BME280;15036;48.094;-1.690;2022-09-16T06:49:02;101111.16;;;21.30;44.60
27613;BME280;15036;48.094;-1.690;2022-09-16T06:51:29;101114.53;;;21.32;44.53
27613;BME280;15036;48.094;-1.690;2022-09-16T06:54:01;101116.34;;;21.22;44.76
27613;BME280;15036;48.094;-1.690;2022-09-16T06:56:26;101113.97;;;21.09;44.43
27613;BME280;15036;48.094;-1.690;2022-09-16T06:58:52;101107.75;;;21.02;44.52
27613;BME280;15036;48.094;-1.690;2022-09-16T07:01:22;101109.72;;;20.63;44.32
27613;BME280;15036;48.094;-1.690;2022-09-16T07:03:50;101112.69;;;21.43;43.48
27613;BME280;15036;48.094;-1.690;2022-09-16T07:06:17;101115.75;;;20.77;44.57
27613;BME280;15036;48.094;-1.690;2022-09-16T07:08:43;101117.63;;;21.14;44.28
27613;BME280;15036;48.094;-1.690;2022-09-16T07:11:11;101115.88;;;20.87;44.74
27613;BME280;15036;48.094;-1.690;2022-09-16T07:13:38;101112.66;;;20.95;43.87
27613;BME280;15036;48.094;-1.690;2022-09-16T07:16:06;101110.72;;;20.73;43.91
27613;BME280;15036;48.094;-1.690;2022-09-16T07:18:32;101112.34;;;20.53;43.81
27613;BME280;15036;48.094;-1.690;2022-09-16T07:21:08;101119.94;;;20.57;44.09
27613;BME280;15036;48.094;-1.690;2022-09-16T07:23:35;101116.91;;;20.42;43.95
27613;BME280;15036;48.094;-1.690;2022-09-16T07:26:10;101118.34;;;20.45;44.15
27613;BME280;15036;48.094;-1.690;2022-09-16T07:28:36;101126.06;;;20.59;43.91
27613;BME280;15036;48.094;-1.690;2022-09-16T07:31:05;101117.53;;;20.28;44.09
27613;BME280;15036;48.094;-1.690;2022-09-16T07:33:31;101123.47;;;20.74;43.90
27613;BME280;15036;48.094;-1.690;2022-09-16T07:35:59;101133.41;;;20.70;43.22
27613;BME280;15036;48.094;-1.690;2022-09-16T07:38:26;101140.53;;;19.78;44.74
27613;BME280;15036;48.094;-1.690;2022-09-16T07:40:52;101134.56;;;20.74;43.50
27613;BME280;15036;48.094;-1.690;2022-09-16T07:43:17;101143.03;;;20.63;44.18
27613;BME280;15036;48.094;-1.690;2022-09-16T07:45:42;101140.66;;;20.71;43.95
27613;BME280;15036;48.094;-1.690;2022-09-16T07:48:08;101140.31;;;20.68;44.08
27613;BME280;15036;48.094;-1.690;2022-09-16T07:50:33;101143.38;;;20.17;45.84
27613;BME280;15036;48.094;-1.690;2022-09-16T07:52:59;101138.22;;;20.58;45.75
27613;BME280;15036;48.094;-1.690;2022-09-16T07:55:24;101143.47;;;20.55;45.89
27613;BME280;15036;48.094;-1.690;2022-09-16T07:57:50;101150.94;;;20.93;45.22
27613;BME280;15036;48.094;-1.690;2022-09-16T08:00:16;101148.22;;;20.38;46.72
27613;BME280;15036;48.094;-1.690;2022-09-16T08:02:41;101151.16;;;20.69;46.21
27613;BME280;15036;48.094;-1.690;2022-09-16T08:05:07;101163.72;;;20.39;46.47
27613;BME280;15036;48.094;-1.690;2022-09-16T08:07:33;101156.31;;;20.44;46.40
27613;BME280;15036;48.094;-1.690;2022-09-16T08:09:59;101156.69;;;20.48;46.69
27613;BME280;15036;48.094;-1.690;2022-09-16T08:12:25;101149.97;;;20.27;46.69
27613;BME280;15036;48.094;-1.690;2022-09-16T08:14:50;101168.84;;;20.30;46.98
27613;BME280;15036;48.094;-1.690;2022-09-16T08:17:15;101165.22;;;20.46;47.08
27613;BME280;15036;48.094;-1.690;2022-09-16T08:19:41;101170.81;;;20.68;46.23
27613;BME280;15036;48.094;-1.690;2022-09-16T08:22:06;101163.31;;;20.47;46.72
27613;BME280;15036;48.094;-1.690;2022-09-16T08:24:33;101170.94;;;20.95;45.60
27613;BME280;15036;48.094;-1.690;2022-09-16T08:26:58;101177.91;;;20.76;45.79
27613;BME280;15036;48.094;-1.690;2022-09-16T08:29:24;101185.88;;;20.72;45.38
27613;BME280;15036;48.094;-1.690;2022-09-16T08:31:50;101202.88;;;20.42;45.33
27613;BME280;15036;48.094;-1.690;2022-09-16T08:34:16;101186.28;;;20.81;44.56
27613;BME280;15036;48.094;-1.690;2022-09-16T08:36:42;101188.47;;;20.79;44.06
27613;BME280;15036;48.094;-1.690;2022-09-16T08:39:08;101190.59;;;20.05;45.29
27613;BME280;15036;48.094;-1.690;2022-09-16T08:44:30;101199.53;;;20.57;44.20
27613;BME280;15036;48.094;-1.690;2022-09-16T08:47:01;101193.28;;;20.83;43.43
27613;BME280;15036;48.094;-1.690;2022-09-16T08:49:47;101193.97;;;21.12;42.59
27613;BME280;15036;48.094;-1.690;2022-09-16T08:57:29;101198.59;;;21.06;42.77
27613;BME280;15036;48.094;-1.690;2022-09-16T09:00:13;101197.13;;;21.42;42.45
27613;BME280;15036;48.094;-1.690;2022-09-16T09:02:53;101207.13;;;21.65;41.93
27613;BME280;15036;48.094;-1.690;2022-09-16T09:13:03;101211.75;;;21.32;42.72
27613;BME280;15036;48.094;-1.690;2022-09-16T09:18:43;101221.13;;;21.10;42.56
27613;BME280;15036;48.094;-1.690;2022-09-16T09:21:30;101203.78;;;22.16;40.86
27613;BME280;15036;48.094;-1.690;2022-09-16T09:24:29;101201.63;;;21.48;41.54
27613;BME280;15036;48.094;-1.690;2022-09-16T09:27:01;101205.91;;;21.34;41.68
27613;BME280;15036;48.094;-1.690;2022-09-16T09:29:41;101207.47;;;21.25;42.14
27613;BME280;15036;48.094;-1.690;2022-09-16T09:35:13;101213.78;;;21.64;40.31
27613;BME280;15036;48.094;-1.690;2022-09-16T09:38:18;101214.19;;;21.29;41.38
27613;BME280;15036;48.094;-1.690;2022-09-16T09:40:51;101223.69;;;20.95;42.23
27613;BME280;15036;48.094;-1.690;2022-09-16T09:43:22;101222.84;;;21.11;41.70
27613;BME280;15036;48.094;-1.690;2022-09-16T09:46:04;101236.53;;;21.17;39.90
27613;BME280;15036;48.094;-1.690;2022-09-16T09:50:58;101225.94;;;20.59;39.12
27613;BME280;15036;48.094;-1.690;2022-09-16T09:53:36;101237.19;;;20.53;38.64
27613;BME280;15036;48.094;-1.690;2022-09-16T09:58:43;101230.09;;;20.95;37.36
27613;BME280;15036;48.094;-1.690;2022-09-16T10:01:12;101228.66;;;20.93;37.24
27613;BME280;15036;48.094;-1.690;2022-09-16T10:03:40;101235.38;;;20.97;37.06
27613;BME280;15036;48.094;-1.690;2022-09-16T10:06:06;101237.81;;;21.31;36.54
27613;BME280;15036;48.094;-1.690;2022-09-16T10:08:42;101230.84;;;21.50;35.54
27613;BME280;15036;48.094;-1.690;2022-09-16T10:11:21;101233.75;;;22.40;34.66
27613;BME280;15036;48.094;-1.690;2022-09-16T10:13:50;101224.66;;;22.82;34.00
27613;BME280;15036;48.094;-1.690;2022-09-16T10:16:21;101239.97;;;22.53;35.09
27613;BME280;15036;48.094;-1.690;2022-09-16T10:19:19;101243.63;;;21.73;36.05
27613;BME280;15036;48.094;-1.690;2022-09-16T10:24:40;101236.91;;;22.86;34.75
27613;BME280;15036;48.094;-1.690;2022-09-16T10:27:36;101251.53;;;22.08;36.17
27613;BME280;15036;48.094;-1.690;2022-09-16T10:32:47;101241.56;;;21.42;36.28
27613;BME280;15036;48.094;-1.690;2022-09-16T10:35:24;101266.94;;;21.07;36.71
27613;BME280;15036;48.094;-1.690;2022-09-16T10:37:56;101255.91;;;21.34;36.56
27613;BME280;15036;48.094;-1.690;2022-09-16T10:40:23;101252.28;;;21.98;35.46
27613;BME280;15036;48.094;-1.690;2022-09-16T10:42:51;101256.94;;;22.19;35.43
27613;BME280;15036;48.094;-1.690;2022-09-16T10:45:29;101252.63;;;22.07;35.93
27613;BME280;15036;48.094;-1.690;2022-09-16T10:47:59;101250.28;;;22.20;36.43
27613;BME280;15036;48.094;-1.690;2022-09-16T10:50:28;101251.88;;;21.85;37.31
27613;BME280;15036;48.094;-1.690;2022-09-16T10:52:54;101253.09;;;21.77;36.97
27613;BME280;15036;48.094;-1.690;2022-09-16T10:55:26;101269.16;;;21.27;37.28
27613;BME280;15036;48.094;-1.690;2022-09-16T10:58:04;101260.09;;;21.80;36.82
27613;BME280;15036;48.094;-1.690;2022-09-16T11:00:36;101251.75;;;22.01;35.97
27613;BME280;15036;48.094;-1.690;2022-09-16T11:11:18;101240.66;;;23.01;33.69
27613;BME280;15036;48.094;-1.690;2022-09-16T11:25:34;101240.94;;;22.05;36.80
27613;BME280;15036;48.094;-1.690;2022-09-16T11:30:18;101231.53;;;22.69;35.73
27613;BME280;15036;48.094;-1.690;2022-09-16T11:35:57;101233.94;;;22.61;35.29
27613;BME280;15036;48.094;-1.690;2022-09-16T11:55:26;101242.31;;;22.61;35.21
27613;BME280;15036;48.094;-1.690;2022-09-16T11:57:57;101235.03;;;22.96;35.05
27613;BME280;15036;48.094;-1.690;2022-09-16T12:00:24;101234.47;;;22.94;35.16
27613;BME280;15036;48.094;-1.690;2022-09-16T12:03:09;101242.66;;;22.42;36.27
27613;BME280;15036;48.094;-1.690;2022-09-16T12:08:12;101240.19;;;23.19;34.61
27613;BME280;15036;48.094;-1.690;2022-09-16T12:11:02;101225.09;;;22.69;35.91
27613;BME280;15036;48.094;-1.690;2022-09-16T12:13:36;101237.38;;;23.66;34.43
27613;BME280;15036;48.094;-1.690;2022-09-16T12:16:13;101234.53;;;23.61;34.25
27613;BME280;15036;48.094;-1.690;2022-09-16T12:18:46;101245.09;;;22.97;35.20
27613;BME280;15036;48.094;-1.690;2022-09-16T12:21:27;101236.59;;;22.77;35.82
27613;BME280;15036;48.094;-1.690;2022-09-16T12:23:55;101232.31;;;22.65;36.16
27613;BME280;15036;48.094;-1.690;2022-09-16T12:26:31;101239.91;;;22.74;35.76
27613;BME280;15036;48.094;-1.690;2022-09-16T12:34:22;101239.69;;;22.81;36.49
27613;BME280;15036;48.094;-1.690;2022-09-16T12:36:57;101243.94;;;22.93;35.66
27613;BME280;15036;48.094;-1.690;2022-09-16T12:39:24;101257.16;;;23.65;34.50
27613;BME280;15036;48.094;-1.690;2022-09-16T12:50:52;101240.22;;;23.91;34.41
27613;BME280;15036;48.094;-1.690;2022-09-16T12:59:25;101230.78;;;25.13;32.60
27613;BME280;15036;48.094;-1.690;2022-09-16T13:02:03;101230.44;;;25.20;32.27
27613;BME280;15036;48.094;-1.690;2022-09-16T13:04:35;101240.56;;;24.05;33.74
27613;BME280;15036;48.094;-1.690;2022-09-16T13:07:02;101232.34;;;23.73;34.78
27613;BME280;15036;48.094;-1.690;2022-09-16T13:09:35;101264.31;;;22.99;35.65
27613;BME280;15036;48.094;-1.690;2022-09-16T13:12:05;101267.09;;;23.41;35.25
27613;BME280;15036;48.094;-1.690;2022-09-16T13:15:01;101260.75;;;23.65;35.02
27613;BME280;15036;48.094;-1.690;2022-09-16T13:17:36;101266.91;;;23.67;34.39
27613;BME280;15036;48.094;-1.690;2022-09-16T13:20:15;101253.81;;;23.63;34.20
27613;BME280;15036;48.094;-1.690;2022-09-16T13:22:51;101259.84;;;22.61;35.82
27613;BME280;15036;48.094;-1.690;2022-09-16T13:25:29;101254.81;;;23.00;35.33
27613;BME280;15036;48.094;-1.690;2022-09-16T13:30:34;101263.38;;;23.92;33.41
27613;BME280;15036;48.094;-1.690;2022-09-16T13:37:57;101247.44;;;25.43;31.74
27613;BME280;15036;48.094;-1.690;2022-09-16T13:40:24;101242.84;;;24.63;32.16
27613;BME280;15036;48.094;-1.690;2022-09-16T13:45:42;101248.13;;;24.35;32.11
27613;BME280;15036;48.094;-1.690;2022-09-16T13:48:23;101242.25;;;25.02;31.52
27613;BME280;15036;48.094;-1.690;2022-09-16T13:50:51;101240.75;;;25.44;30.92
27613;BME280;15036;48.094;-1.690;2022-09-16T13:53:37;101238.34;;;25.08;31.13
27613;BME280;15036;48.094;-1.690;2022-09-16T14:01:44;101234.16;;;24.80;31.21
27613;BME280;15036;48.094;-1.690;2022-09-16T14:12:50;101212.00;;;25.88;31.31
27613;BME280;15036;48.094;-1.690;2022-09-16T14:15:17;101206.53;;;26.16;30.46
27613;BME280;15036;48.094;-1.690;2022-09-16T14:17:46;101214.16;;;26.01;30.91
27613;BME280;15036;48.094;-1.690;2022-09-16T14:20:15;101211.31;;;25.62;31.25
27613;BME280;15036;48.094;-1.690;2022-09-16T14:22:43;101207.03;;;25.74;31.35
27613;BME280;15036;48.094;-1.690;2022-09-16T14:25:31;101206.59;;;25.52;30.79
27613;BME280;15036;48.094;-1.690;2022-09-16T14:28:29;101214.38;;;26.14;30.59
27613;BME280;15036;48.094;-1.690;2022-09-16T14:30:56;101214.50;;;25.30;31.92
27613;BME280;15036;48.094;-1.690;2022-09-16T14:33:26;101217.97;;;25.71;31.51
27613;BME280;15036;48.094;-1.690;2022-09-16T14:35:54;101214.56;;;23.89;33.57
27613;BME280;15036;48.094;-1.690;2022-09-16T14:38:22;101211.28;;;24.68;32.44
27613;BME280;15036;48.094;-1.690;2022-09-16T14:40:49;101208.75;;;24.91;32.34
27613;BME280;15036;48.094;-1.690;2022-09-16T14:43:18;101207.38;;;24.08;33.59
27613;BME280;15036;48.094;-1.690;2022-09-16T14:45:51;101213.16;;;23.77;34.34
27613;BME280;15036;48.094;-1.690;2022-09-16T14:48:18;101216.88;;;24.18;33.94
27613;BME280;15036;48.094;-1.690;2022-09-16T14:50:46;101220.72;;;25.07;32.83
27613;BME280;15036;48.094;-1.690;2022-09-16T14:53:28;101209.06;;;24.50;33.55
27613;BME280;15036;48.094;-1.690;2022-09-16T14:55:54;101224.41;;;24.32;33.96
27613;BME280;15036;48.094;-1.690;2022-09-16T14:58:21;101222.44;;;24.88;33.40
27613;BME280;15036;48.094;-1.690;2022-09-16T15:00:51;101208.47;;;24.93;32.49
27613;BME280;15036;48.094;-1.690;2022-09-16T15:06:24;101226.97;;;23.47;35.35
27613;BME280;15036;48.094;-1.690;2022-09-16T15:08:58;101223.50;;;23.24;35.71
27613;BME280;15036;48.094;-1.690;2022-09-16T15:11:28;101218.38;;;23.01;36.34
27613;BME280;15036;48.094;-1.690;2022-09-16T15:13:55;101225.03;;;23.00;36.77
27613;BME280;15036;48.094;-1.690;2022-09-16T15:16:22;101225.56;;;23.39;36.80
27613;BME280;15036;48.094;-1.690;2022-09-16T15:21:43;101227.81;;;23.47;36.13
27613;BME280;15036;48.094;-1.690;2022-09-16T15:24:17;101227.75;;;24.14;35.28
27613;BME280;15036;48.094;-1.690;2022-09-16T15:26:44;101227.47;;;24.41;34.88
27613;BME280;15036;48.094;-1.690;2022-09-16T15:31:42;101231.63;;;24.03;34.67
27613;BME280;15036;48.094;-1.690;2022-09-16T15:36:46;101229.09;;;24.01;35.13
27613;BME280;15036;48.094;-1.690;2022-09-16T15:42:09;101250.97;;;23.06;36.53
27613;BME280;15036;48.094;-1.690;2022-09-16T15:44:37;101224.31;;;23.92;35.14
27613;BME280;15036;48.094;-1.690;2022-09-16T15:47:27;101239.13;;;23.92;34.38
27613;BME280;15036;48.094;-1.690;2022-09-16T15:50:00;101230.69;;;23.77;34.26
27613;BME280;15036;48.094;-1.690;2022-09-16T15:52:27;101237.16;;;23.88;34.31
27613;BME280;15036;48.094;-1.690;2022-09-16T15:54:58;101225.75;;;25.00;32.49
27613;BME280;15036;48.094;-1.690;2022-09-16T15:57:31;101215.63;;;25.88;31.26
27613;BME280;15036;48.094;-1.690;2022-09-16T16:00:02;101220.13;;;25.84;30.93
27613;BME280;15036;48.094;-1.690;2022-09-16T16:02:47;101218.69;;;25.33;31.33
27613;BME280;15036;48.094;-1.690;2022-09-16T16:05:23;101217.28;;;25.35;31.04
27613;BME280;15036;48.094;-1.690;2022-09-16T16:07:54;101212.59;;;25.79;30.62